This is the latest recevied weather packets stored in our database for station/object E22ZMG-2. If no packets are shown the sender has not sent any weather packets the latest 10 day(s).
| Time | Temp. | Humidity | Pressure | Rain* | Wind** | Luminosity | Snow |
|---|---|---|---|---|---|---|---|
| 1777985606 | 31.11° C | 55% | 925 hPa | - | - | 0 W/m² | - |
| 1777984982 | 31.11° C | 55% | 925 hPa | - | - | 0 W/m² | - |
| 1777984358 | 30.56° C | 56% | 925 hPa | - | - | 0 W/m² | - |
| 1777983734 | 31.11° C | 54% | 925 hPa | - | - | 0 W/m² | - |
| 1777983110 | 31.67° C | 52% | 925 hPa | - | - | 0 W/m² | - |
| 1777982485 | 31.11° C | 54% | 925 hPa | - | - | 0 W/m² | - |
| 1777981861 | 31.11° C | 53% | 925 hPa | - | - | 0 W/m² | - |
| 1777981237 | 31.11° C | 53% | 924 hPa | - | - | 0 W/m² | - |
| 1777980613 | 31.67° C | 51% | 924 hPa | - | - | 0 W/m² | - |
| 1777979989 | 31.67° C | 50% | 924 hPa | - | - | 0 W/m² | - |
| 1777979365 | 31.67° C | 49% | 924 hPa | - | - | 0 W/m² | - |
| 1777978741 | 32.22° C | 47% | 924 hPa | - | - | 0 W/m² | - |
| 1777978117 | 32.22° C | 47% | 924 hPa | - | - | 0 W/m² | - |
| 1777977493 | 32.22° C | 46% | 924 hPa | - | - | 0 W/m² | - |
| 1777976869 | 32.22° C | 47% | 924 hPa | - | - | 0 W/m² | - |
| 1777976245 | 32.22° C | 51% | 924 hPa | - | - | 0 W/m² | - |
| 1777975621 | 32.22° C | 52% | 924 hPa | - | - | 0 W/m² | - |
| 1777974996 | 32.22° C | 50% | 924 hPa | - | - | 0 W/m² | - |
| 1777974372 | 32.22° C | 50% | 924 hPa | - | - | 0 W/m² | - |
| 1777973748 | 32.78° C | 50% | 924 hPa | - | - | 0 W/m² | - |
| 1777973124 | 32.78° C | 50% | 924 hPa | - | - | 0 W/m² | - |
| 1777972500 | 32.22° C | 50% | 924 hPa | - | - | 0 W/m² | - |
| 1777971876 | 32.78° C | 49% | 924 hPa | - | - | 0 W/m² | - |
| 1777971252 | 32.22° C | 49% | 924 hPa | - | - | 0 W/m² | - |
| 1777970628 | 32.22° C | 49% | 924 hPa | - | - | 0 W/m² | - |
* Rain since midnight (hover to see other rain measurements)
** Current wind speed in m/s (hover to see current wind gust speed)